createdAt,value
2022-08-03T00:01:49.499Z,98355.66
2022-08-03T00:04:16.620Z,98348.25
2022-08-03T00:06:43.671Z,98304.00
2022-08-03T00:09:11.058Z,98349.97
2022-08-03T00:11:38.639Z,98423.94
2022-08-03T00:14:06.420Z,98399.66
2022-08-03T00:16:33.064Z,98422.16
2022-08-03T00:19:01.162Z,98315.91
2022-08-03T00:21:28.503Z,98346.50
2022-08-03T00:23:58.660Z,98355.22
2022-08-03T00:26:28.258Z,98313.59
2022-08-03T00:28:54.915Z,98368.81
2022-08-03T00:31:29.678Z,98324.88
2022-08-03T00:34:18.313Z,98200.66
2022-08-03T00:37:04.114Z,98361.25
2022-08-03T00:39:33.347Z,97804.41
2022-08-03T00:42:06.308Z,98381.00
2022-08-03T00:44:42.820Z,98309.41
2022-08-03T00:47:11.294Z,98377.03
2022-08-03T00:49:39.458Z,98421.94
2022-08-03T00:52:12.793Z,98417.91
2022-08-03T00:54:40.385Z,98304.19
2022-08-03T00:57:07.808Z,98360.00
2022-08-03T00:59:34.457Z,98263.53
2022-08-03T01:02:01.071Z,98326.84
2022-08-03T01:04:28.011Z,98268.13
2022-08-03T01:07:03.873Z,98356.59
2022-08-03T01:09:49.216Z,98418.09
2022-08-03T01:12:34.983Z,98290.66
2022-08-03T01:15:33.978Z,98416.25
2022-08-03T01:18:10.058Z,98369.53
2022-08-03T01:20:40.436Z,98287.34
2022-08-03T01:23:17.612Z,98183.84
2022-08-03T01:26:15.329Z,98413.28
2022-08-03T01:29:03.684Z,98335.78
2022-08-03T01:32:58.244Z,98321.91
2022-08-03T01:34:31.558Z,98375.63
2022-08-03T01:37:03.160Z,98378.75
2022-08-03T01:39:32.913Z,98300.44
2022-08-03T01:42:03.884Z,98310.31
2022-08-03T01:44:33.799Z,98303.38
2022-08-03T01:47:02.300Z,98266.44
2022-08-03T01:49:32.335Z,98282.81
2022-08-03T01:52:05.003Z,98355.28
2022-08-03T01:54:41.910Z,98377.31
2022-08-03T01:57:10.294Z,98418.56
2022-08-03T01:59:38.604Z,98378.59
2022-08-03T02:02:15.495Z,98410.44
2022-08-03T02:04:56.817Z,98256.84
2022-08-03T02:07:25.788Z,98330.53
2022-08-03T02:09:54.290Z,98312.41
2022-08-03T02:12:23.855Z,98335.66
2022-08-03T02:14:51.402Z,98356.94
2022-08-03T02:17:38.689Z,98388.75
2022-08-03T02:20:08.446Z,98285.19
2022-08-03T02:22:35.962Z,98322.03
2022-08-03T02:25:02.707Z,98329.97
2022-08-03T02:27:31.778Z,98325.00
2022-08-03T02:30:02.748Z,98410.31
2022-08-03T02:32:37.773Z,98327.59
2022-08-03T02:35:08.503Z,98297.00
2022-08-03T02:37:42.645Z,98385.50
2022-08-03T02:40:12.995Z,98311.63
2022-08-03T02:42:42.631Z,98345.84
2022-08-03T02:45:11.917Z,98293.75
2022-08-03T02:47:54.329Z,98334.13
2022-08-03T02:50:23.461Z,98404.25
2022-08-03T02:52:51.923Z,98316.81
2022-08-03T02:55:20.268Z,98310.69
2022-08-03T02:57:48.237Z,98306.03
2022-08-03T03:00:19.500Z,98341.47
2022-08-03T03:02:57.472Z,98263.66
2022-08-03T03:05:53.716Z,98264.63
2022-08-03T03:08:18.980Z,98382.03
2022-08-03T03:10:55.730Z,98263.75
2022-08-03T03:13:23.378Z,98390.63
2022-08-03T03:15:52.013Z,98325.84
2022-08-03T03:18:22.537Z,98315.47
2022-08-03T03:20:52.511Z,98285.44
2022-08-03T03:23:21.557Z,98398.78
2022-08-03T03:25:49.224Z,98316.72
2022-08-03T03:28:16.204Z,98322.97
2022-08-03T03:30:43.203Z,98307.13
2022-08-03T03:33:09.903Z,98310.63
2022-08-03T03:35:38.797Z,98401.09
2022-08-03T03:38:07.141Z,98340.47
2022-08-03T03:40:35.822Z,98312.03
2022-08-03T03:43:03.196Z,98274.16
2022-08-03T03:45:31.082Z,98319.22
2022-08-03T03:48:00.421Z,98277.59
2022-08-03T03:50:28.139Z,98301.00
2022-08-03T03:52:54.749Z,98351.63
2022-08-03T03:55:21.409Z,98300.88
2022-08-03T03:57:48.028Z,98375.13
2022-08-03T04:00:16.566Z,98362.06
2022-08-03T04:02:43.664Z,98334.56
2022-08-03T04:05:10.472Z,98306.59
2022-08-03T04:07:57.740Z,98332.94
2022-08-03T04:10:31.538Z,98293.41
2022-08-03T04:13:01.111Z,98318.03
2022-08-03T04:15:29.076Z,98217.84
2022-08-03T04:17:59.077Z,98307.00
2022-08-03T04:20:29.715Z,98310.56
2022-08-03T04:22:58.316Z,98299.47
2022-08-03T04:25:28.013Z,98322.97
2022-08-03T04:28:08.063Z,98382.41
2022-08-03T04:30:47.221Z,98403.50
2022-08-03T04:33:16.239Z,98348.09
2022-08-03T04:36:01.087Z,98320.41
2022-08-03T04:38:31.437Z,98356.72
2022-08-03T04:40:59.849Z,98365.97
2022-08-03T04:43:27.768Z,98362.00
2022-08-03T04:45:56.548Z,98321.38
2022-08-03T04:48:23.917Z,98309.19
2022-08-03T04:50:50.919Z,98338.56
2022-08-03T04:53:17.614Z,98344.22
2022-08-03T04:55:44.428Z,98381.50
2022-08-03T04:58:11.180Z,98341.38
2022-08-03T05:00:38.024Z,98306.34
2022-08-03T05:03:04.839Z,98420.91
2022-08-03T05:05:50.568Z,98375.88
2022-08-03T05:08:20.572Z,98405.78
2022-08-03T05:10:59.048Z,98314.63
2022-08-03T05:13:26.400Z,98373.97
2022-08-03T05:15:52.985Z,98434.28
2022-08-03T05:18:20.209Z,98335.22
2022-08-03T05:20:47.014Z,98348.53
2022-08-03T05:23:13.720Z,98390.06
2022-08-03T05:25:40.543Z,98360.63
2022-08-03T05:28:16.678Z,98412.97
2022-08-03T05:30:43.445Z,98356.81
2022-08-03T05:33:10.867Z,98426.56
2022-08-03T05:36:01.413Z,98370.34
2022-08-03T05:38:28.519Z,98325.63
2022-08-03T05:41:23.302Z,98419.28
2022-08-03T05:43:44.451Z,98313.47
2022-08-03T05:46:12.275Z,98338.28
2022-08-03T05:48:39.535Z,98297.53
2022-08-03T05:51:06.178Z,98384.16
2022-08-03T05:53:35.958Z,98330.13
2022-08-03T05:56:14.147Z,98384.34
2022-08-03T05:58:44.138Z,98333.72
2022-08-03T06:01:10.845Z,98314.75
2022-08-03T06:03:37.644Z,98318.28
2022-08-03T06:06:04.526Z,98378.28
2022-08-03T06:08:31.182Z,98284.47
2022-08-03T06:10:57.876Z,98394.97
2022-08-03T06:13:24.712Z,98338.16
2022-08-03T06:15:51.305Z,98343.34
2022-08-03T06:18:19.075Z,98386.91
2022-08-03T06:21:14.253Z,98401.38
2022-08-03T06:23:55.486Z,98356.91
2022-08-03T06:26:26.984Z,98399.13
2022-08-03T06:28:55.181Z,98350.22
2022-08-03T06:31:24.183Z,98305.56
2022-08-03T06:34:30.651Z,98410.66
2022-08-03T06:36:37.849Z,98398.28
2022-08-03T06:39:05.186Z,98415.00
2022-08-03T06:41:38.054Z,98340.09
2022-08-03T06:44:11.714Z,98324.50
2022-08-03T06:46:39.603Z,98390.81
2022-08-03T06:49:08.675Z,98356.31
2022-08-03T06:52:04.186Z,98315.41
2022-08-03T06:54:22.187Z,98340.69
2022-08-03T06:56:48.935Z,98400.75
2022-08-03T07:00:10.363Z,98325.06
2022-08-03T07:02:02.438Z,98375.09
2022-08-03T07:04:29.069Z,98410.84
2022-08-03T07:06:56.066Z,98340.56
2022-08-03T07:09:22.692Z,98322.72
2022-08-03T07:11:49.352Z,98277.50
2022-08-03T07:14:15.969Z,98366.47
2022-08-03T07:16:42.751Z,98370.41
2022-08-03T07:19:09.384Z,98307.22
2022-08-03T07:21:36.043Z,98251.78
2022-08-03T07:24:02.884Z,97994.91
2022-08-03T07:26:29.654Z,98366.19
2022-08-03T07:28:56.384Z,98340.88
2022-08-03T07:31:23.368Z,98316.16
2022-08-03T07:33:50.032Z,98111.38
2022-08-03T07:36:16.947Z,97926.63
2022-08-03T07:38:43.702Z,98339.78
2022-08-03T07:41:10.473Z,98331.88
2022-08-03T07:43:37.136Z,98337.69
2022-08-03T07:46:04.080Z,98353.78
2022-08-03T07:48:30.784Z,98336.44
2022-08-03T07:50:57.593Z,98312.09
2022-08-03T07:53:24.257Z,98331.34
2022-08-03T07:55:51.028Z,98395.91
2022-08-03T07:58:22.087Z,98304.72
2022-08-03T08:00:51.034Z,98398.09
2022-08-03T08:03:17.746Z,98326.72
2022-08-03T08:05:44.775Z,98346.94
2022-08-03T08:08:11.511Z,98055.72
2022-08-03T08:10:38.358Z,98336.47
2022-08-03T08:13:05.330Z,98340.63
2022-08-03T08:15:32.779Z,98332.47
2022-08-03T08:18:01.338Z,98299.66
2022-08-03T08:20:32.200Z,98288.09
2022-08-03T08:23:19.989Z,98378.50
2022-08-03T08:25:52.814Z,98290.44
2022-08-03T08:28:32.482Z,98336.16
2022-08-03T08:31:01.262Z,98284.31
2022-08-03T08:33:37.659Z,98282.22
2022-08-03T08:36:15.539Z,98322.50
2022-08-03T08:38:43.201Z,98355.25
2022-08-03T08:41:11.078Z,98341.88
2022-08-03T08:43:37.797Z,98275.09
2022-08-03T08:46:06.188Z,98384.69
2022-08-03T08:48:32.814Z,98315.03
2022-08-03T08:51:00.797Z,98316.16
2022-08-03T08:53:29.190Z,98376.06
2022-08-03T08:56:00.965Z,98361.78
2022-08-03T08:58:38.004Z,98330.75
2022-08-03T09:01:05.882Z,98316.00
2022-08-03T09:03:36.086Z,98372.47
2022-08-03T09:06:03.872Z,98372.94
2022-08-03T09:08:32.177Z,98270.72
2022-08-03T09:10:59.485Z,98313.66
2022-08-03T09:13:26.560Z,98319.06
2022-08-03T09:16:12.249Z,98366.69
2022-08-03T09:18:39.614Z,98368.16
2022-08-03T09:21:36.275Z,98250.50
2022-08-03T09:24:06.497Z,98224.22
2022-08-03T09:26:37.996Z,98301.19
2022-08-03T09:29:15.343Z,98350.19
2022-08-03T09:31:45.073Z,98345.38
2022-08-03T09:34:14.619Z,98351.31
2022-08-03T09:36:44.070Z,98351.31
2022-08-03T09:39:13.141Z,98289.28
2022-08-03T09:41:45.276Z,98329.59
2022-08-03T09:44:24.118Z,98277.69
2022-08-03T09:46:55.988Z,98308.72
2022-08-03T09:49:23.389Z,98310.53
2022-08-03T09:52:32.367Z,98298.38
2022-08-03T09:54:37.137Z,98306.34
2022-08-03T09:57:04.154Z,98315.63
2022-08-03T09:59:32.276Z,98344.19
2022-08-03T10:02:00.611Z,98291.53
2022-08-03T10:04:28.506Z,98279.78
2022-08-03T10:07:03.664Z,98339.03
2022-08-03T10:09:30.359Z,98312.97
2022-08-03T10:11:57.434Z,98221.84
2022-08-03T10:14:24.624Z,98287.09
2022-08-03T10:16:51.215Z,98282.34
2022-08-03T10:19:18.405Z,98305.69
2022-08-03T10:21:53.676Z,98241.75
2022-08-03T10:24:25.019Z,98251.56
2022-08-03T10:26:53.472Z,98233.19
2022-08-03T10:29:24.934Z,98250.91
2022-08-03T10:31:58.205Z,98327.28
2022-08-03T10:34:35.207Z,98322.09
2022-08-03T10:37:08.048Z,98259.72
2022-08-03T10:39:35.982Z,98276.97
2022-08-03T10:42:05.599Z,98275.63
2022-08-03T10:44:42.246Z,98237.66
2022-08-03T10:47:10.646Z,98270.41
2022-08-03T10:49:38.253Z,98308.84
2022-08-03T10:52:13.793Z,98051.03
2022-08-03T10:54:53.102Z,98285.41
2022-08-03T10:57:46.475Z,98289.06
2022-08-03T11:00:20.791Z,98266.69
2022-08-03T11:03:02.634Z,98294.00
2022-08-03T11:05:32.125Z,98301.94
2022-08-03T11:08:18.402Z,98290.78
2022-08-03T11:10:45.723Z,98293.94
2022-08-03T11:13:16.875Z,98291.00
2022-08-03T11:15:46.689Z,98208.22
2022-08-03T11:18:14.671Z,98271.97
2022-08-03T11:20:58.366Z,98256.88
2022-08-03T11:24:04.285Z,98230.66
2022-08-03T11:26:34.316Z,98289.38
2022-08-03T11:29:33.284Z,98281.22
2022-08-03T11:32:00.519Z,98236.03
2022-08-03T11:34:27.142Z,98228.69
2022-08-03T11:37:20.325Z,98273.91
2022-08-03T11:39:51.851Z,98257.00
2022-08-03T11:42:32.219Z,98264.53
2022-08-03T11:45:01.193Z,98264.84
2022-08-03T11:47:34.096Z,98029.19
2022-08-03T11:50:07.788Z,98249.44
2022-08-03T11:52:45.443Z,98066.25
2022-08-03T11:55:22.001Z,97969.69
2022-08-03T11:59:17.557Z,98174.53
2022-08-03T12:00:36.342Z,98229.56
2022-08-03T12:03:09.150Z,98265.03
2022-08-03T12:05:51.344Z,98266.25
2022-08-03T12:08:33.675Z,98226.31
2022-08-03T12:11:02.637Z,98267.59
2022-08-03T12:14:37.326Z,98266.28
2022-08-03T12:16:32.731Z,98218.25
2022-08-03T12:19:01.767Z,97996.28
2022-08-03T12:21:29.460Z,98255.84
2022-08-03T12:24:05.203Z,98254.31
2022-08-03T12:26:58.926Z,98245.09
2022-08-03T12:29:27.271Z,98154.59
2022-08-03T12:31:53.835Z,98148.41
2022-08-03T12:34:20.520Z,98256.44
2022-08-03T12:36:55.833Z,98186.94
2022-08-03T12:39:27.113Z,98204.56
2022-08-03T12:41:59.266Z,98164.69
2022-08-03T12:44:34.405Z,98178.84
2022-08-03T12:47:02.750Z,98186.19
2022-08-03T12:49:30.438Z,98228.66
2022-08-03T12:52:01.723Z,98120.31
2022-08-03T12:54:32.473Z,98156.72
2022-08-03T12:57:10.342Z,98167.00
2022-08-03T12:59:42.155Z,98163.56
2022-08-03T13:02:26.380Z,98225.47
2022-08-03T13:04:54.596Z,98126.00
2022-08-03T13:07:22.783Z,98176.59
2022-08-03T13:09:55.164Z,98217.50
2022-08-03T13:12:24.251Z,98191.00
2022-08-03T13:14:53.240Z,98115.34
2022-08-03T13:17:20.390Z,98153.66
2022-08-03T13:19:48.427Z,98177.28
2022-08-03T13:22:15.000Z,98219.59
2022-08-03T13:24:44.687Z,98101.34
2022-08-03T13:28:01.233Z,98211.81
2022-08-03T13:29:58.908Z,98213.28
2022-08-03T13:32:25.740Z,98143.09
2022-08-03T13:34:52.531Z,98194.25
2022-08-03T13:37:19.127Z,98175.28
2022-08-03T13:39:59.800Z,98161.38
2022-08-03T13:42:35.167Z,98194.81
2022-08-03T13:45:02.814Z,98153.41
2022-08-03T13:47:29.632Z,98171.31
2022-08-03T13:50:01.845Z,98073.88
2022-08-03T13:52:31.363Z,97964.66
2022-08-03T13:54:58.141Z,98140.75
2022-08-03T13:58:04.794Z,98140.06
2022-08-03T14:00:12.040Z,98125.28
2022-08-03T14:02:38.736Z,98112.25
2022-08-03T14:05:05.919Z,98135.38
2022-08-03T14:07:32.565Z,98145.91
2022-08-03T14:09:59.855Z,98181.41
2022-08-03T14:12:26.641Z,98178.44
2022-08-03T14:14:55.957Z,98114.72
2022-08-03T14:17:24.819Z,98110.03
2022-08-03T14:19:53.533Z,98116.28
2022-08-03T14:22:21.527Z,98142.69
2022-08-03T14:24:49.191Z,98126.00
2022-08-03T14:27:16.919Z,98110.88
2022-08-03T14:29:43.613Z,98173.25
2022-08-03T14:32:13.203Z,98109.47
2022-08-03T14:34:40.805Z,98101.16
2022-08-03T14:37:07.993Z,98151.81
2022-08-03T14:42:21.394Z,98129.44
2022-08-03T14:44:48.048Z,98162.88
2022-08-03T14:47:14.846Z,98160.75
2022-08-03T14:50:37.525Z,98159.13
2022-08-03T14:52:28.874Z,98118.47
2022-08-03T14:54:55.590Z,98106.50
2022-08-03T14:57:22.454Z,98166.25
2022-08-03T14:59:56.771Z,98022.56
2022-08-03T19:06:08.551Z,98150.63
2022-08-03T19:09:06.275Z,98052.66
2022-08-03T19:12:14.017Z,98161.44
2022-08-03T19:14:49.407Z,97957.63
2022-08-03T19:17:21.278Z,97577.56
2022-08-03T19:19:53.494Z,97990.69
2022-08-03T19:22:24.497Z,97519.06
2022-08-03T19:25:01.449Z,98165.94
2022-08-03T19:27:32.824Z,97597.84
2022-08-03T19:30:14.116Z,97573.94
2022-08-03T19:32:50.128Z,97815.22
2022-08-03T19:35:18.903Z,98124.22
2022-08-03T19:37:55.401Z,98115.69
2022-08-03T19:40:27.710Z,98160.25
2022-08-03T19:42:59.945Z,98182.63
2022-08-03T19:46:06.080Z,97990.72
2022-08-03T19:48:22.248Z,97816.41
2022-08-03T19:50:52.741Z,98182.47
2022-08-03T19:53:20.553Z,98147.25
2022-08-03T19:55:53.657Z,98096.56
2022-08-03T19:58:28.478Z,98190.75
2022-08-03T20:00:56.056Z,98184.53
2022-08-03T20:03:26.999Z,98183.53
2022-08-03T20:06:10.740Z,98147.84
2022-08-03T20:08:44.388Z,98132.47
2022-08-03T20:11:11.530Z,98010.38
2022-08-03T20:13:38.964Z,98097.53
2022-08-03T20:16:26.038Z,98082.50
2022-08-03T20:18:52.599Z,98009.69
2022-08-03T20:21:21.684Z,98119.38
2022-08-03T20:24:01.805Z,98150.53
2022-08-03T20:26:31.611Z,98195.41
2022-08-03T20:29:09.161Z,98189.84
2022-08-03T20:31:37.221Z,98044.91
2022-08-03T20:34:05.167Z,98031.03
2022-08-03T20:36:31.964Z,98105.91
2022-08-03T20:38:59.084Z,98181.97
2022-08-03T20:41:26.441Z,98187.94
2022-08-03T20:43:53.310Z,98135.44
2022-08-03T20:46:32.105Z,98182.06
2022-08-03T20:49:05.993Z,98147.22
2022-08-03T20:51:50.140Z,98123.25
2022-08-03T20:57:09.523Z,98137.28
2022-08-03T20:59:50.876Z,98112.63
2022-08-03T21:02:29.545Z,98128.47
2022-08-03T21:05:03.492Z,98129.88
2022-08-03T21:08:04.988Z,98123.28
2022-08-03T21:10:41.952Z,97874.69
2022-08-03T21:13:14.055Z,98049.25
2022-08-03T21:13:38.896Z,98189.13
2022-08-03T21:16:14.128Z,98092.00
2022-08-03T21:18:49.995Z,98185.72
2022-08-03T21:21:19.711Z,98120.56
2022-08-03T21:23:53.900Z,98183.03
2022-08-03T21:26:27.912Z,98066.63
2022-08-03T21:28:56.040Z,98182.88
2022-08-03T21:31:26.240Z,98184.53
2022-08-03T21:34:04.619Z,98186.22
2022-08-03T21:36:37.124Z,98181.16
2022-08-03T21:39:08.145Z,98133.88
2022-08-03T21:41:37.024Z,98121.03
2022-08-03T21:44:06.889Z,98116.00
2022-08-03T21:46:38.078Z,98073.81
2022-08-03T21:50:05.363Z,98149.88
2022-08-03T21:51:58.430Z,98102.63
2022-08-03T21:54:32.449Z,98091.84
2022-08-03T21:57:04.332Z,98186.16
2022-08-03T21:59:35.957Z,98187.03
2022-08-03T22:02:02.930Z,98125.50
2022-08-03T22:04:55.161Z,98137.34
2022-08-03T22:07:22.804Z,98119.91
2022-08-03T22:09:51.518Z,98182.00
2022-08-03T22:12:23.530Z,98119.66
2022-08-03T22:15:01.328Z,98104.09
2022-08-03T22:17:54.709Z,98123.72
2022-08-03T22:20:17.582Z,98168.34
2022-08-03T22:22:55.366Z,98133.69
2022-08-03T22:25:31.928Z,98180.19
2022-08-03T22:28:08.633Z,98163.03
2022-08-03T22:30:36.151Z,98143.44
2022-08-03T22:33:05.460Z,98127.00
2022-08-03T22:35:47.344Z,98127.59
2022-08-03T22:38:17.103Z,98149.91
2022-08-03T22:40:47.139Z,98188.38
2022-08-03T22:43:14.197Z,98073.06
2022-08-03T22:46:07.126Z,98162.81
2022-08-03T22:48:33.982Z,98181.38
2022-08-03T22:51:02.732Z,98180.31
2022-08-03T22:53:29.742Z,98166.84
2022-08-03T22:55:56.915Z,98140.50
2022-08-03T22:58:23.717Z,98116.31
2022-08-03T23:00:57.454Z,98160.41
2022-08-03T23:04:01.281Z,98159.34
2022-08-03T23:06:19.820Z,98133.00
2022-08-03T23:08:48.399Z,98143.75
2022-08-03T23:11:18.445Z,98126.81
2022-08-03T23:13:47.076Z,98141.59
2022-08-03T23:16:16.098Z,98129.47
2022-08-03T23:18:56.505Z,98150.72
2022-08-03T23:21:59.844Z,98185.97
2022-08-03T23:24:28.467Z,98128.38
2022-08-03T23:26:57.015Z,98146.66
2022-08-03T23:29:23.850Z,98120.56
2022-08-03T23:31:53.641Z,98142.63
2022-08-03T23:34:21.707Z,98104.44
2022-08-03T23:36:49.301Z,98183.25
2022-08-03T23:39:19.404Z,98184.28
2022-08-03T23:41:48.375Z,98159.53
2022-08-03T23:44:17.161Z,98158.72
2022-08-03T23:46:45.584Z,98124.28
2022-08-03T23:49:12.117Z,98142.03
2022-08-03T23:52:02.989Z,98134.97
2022-08-03T23:55:11.333Z,98182.34
2022-08-03T23:57:40.948Z,98178.56
